sensor_id;sensor_type;location;lat;lon;timestamp;P1;durP1;ratioP1;P2;durP2;ratioP2
55188;SDS011;41069;52.192;5.398;2023-02-01T00:02:07;2.97;;;1.13;;
55188;SDS011;41069;52.192;5.398;2023-02-01T00:09:40;1.85;;;0.90;;
55188;SDS011;41069;52.192;5.398;2023-02-01T00:12:06;6.22;;;1.17;;
55188;SDS011;41069;52.192;5.398;2023-02-01T00:14:31;3.95;;;1.30;;
55188;SDS011;41069;52.192;5.398;2023-02-01T00:16:57;4.10;;;1.33;;
55188;SDS011;41069;52.192;5.398;2023-02-01T00:19:23;2.90;;;1.20;;
55188;SDS011;41069;52.192;5.398;2023-02-01T00:21:49;3.15;;;1.40;;
55188;SDS011;41069;52.192;5.398;2023-02-01T00:24:28;1.33;;;0.85;;
55188;SDS011;41069;52.192;5.398;2023-02-01T00:26:54;1.55;;;0.90;;
55188;SDS011;41069;52.192;5.398;2023-02-01T00:29:28;1.10;;;0.82;;
55188;SDS011;41069;52.192;5.398;2023-02-01T00:31:54;1.15;;;0.73;;
55188;SDS011;41069;52.192;5.398;2023-02-01T00:34:22;1.80;;;1.00;;
55188;SDS011;41069;52.192;5.398;2023-02-01T00:37:03;1.13;;;0.90;;
55188;SDS011;41069;52.192;5.398;2023-02-01T00:39:29;3.85;;;1.00;;
55188;SDS011;41069;52.192;5.398;2023-02-01T00:42:09;2.05;;;1.00;;
55188;SDS011;41069;52.192;5.398;2023-02-01T00:47:12;1.35;;;1.20;;
55188;SDS011;41069;52.192;5.398;2023-02-01T00:49:37;3.20;;;1.30;;
55188;SDS011;41069;52.192;5.398;2023-02-01T00:52:03;2.33;;;0.90;;
55188;SDS011;41069;52.192;5.398;2023-02-01T00:57:30;2.75;;;0.93;;
55188;SDS011;41069;52.192;5.398;2023-02-01T01:00:01;1.40;;;0.80;;
55188;SDS011;41069;52.192;5.398;2023-02-01T01:08:16;2.90;;;1.00;;
55188;SDS011;41069;52.192;5.398;2023-02-01T01:10:42;2.35;;;0.85;;
55188;SDS011;41069;52.192;5.398;2023-02-01T01:13:08;4.00;;;1.15;;
55188;SDS011;41069;52.192;5.398;2023-02-01T01:15:38;2.10;;;0.73;;
55188;SDS011;41069;52.192;5.398;2023-02-01T01:18:05;1.77;;;1.00;;
55188;SDS011;41069;52.192;5.398;2023-02-01T01:20:33;2.22;;;0.95;;
55188;SDS011;41069;52.192;5.398;2023-02-01T01:23:07;1.92;;;0.73;;
55188;SDS011;41069;52.192;5.398;2023-02-01T01:25:37;3.05;;;1.08;;
55188;SDS011;41069;52.192;5.398;2023-02-01T01:28:04;2.92;;;0.98;;
55188;SDS011;41069;52.192;5.398;2023-02-01T01:30:31;2.40;;;0.95;;
55188;SDS011;41069;52.192;5.398;2023-02-01T01:32:57;3.92;;;1.00;;
55188;SDS011;41069;52.192;5.398;2023-02-01T01:35:23;2.00;;;1.20;;
55188;SDS011;41069;52.192;5.398;2023-02-01T01:37:50;3.90;;;1.00;;
55188;SDS011;41069;52.192;5.398;2023-02-01T01:40:16;2.58;;;0.95;;
55188;SDS011;41069;52.192;5.398;2023-02-01T01:42:44;3.55;;;0.93;;
55188;SDS011;41069;52.192;5.398;2023-02-01T01:45:26;3.42;;;1.13;;
55188;SDS011;41069;52.192;5.398;2023-02-01T01:47:56;3.85;;;0.80;;
55188;SDS011;41069;52.192;5.398;2023-02-01T01:56:34;0.82;;;0.80;;
55188;SDS011;41069;52.192;5.398;2023-02-01T01:59:02;3.22;;;1.30;;
55188;SDS011;41069;52.192;5.398;2023-02-01T02:01:30;2.42;;;1.20;;
55188;SDS011;41069;52.192;5.398;2023-02-01T02:03:56;1.95;;;0.70;;
55188;SDS011;41069;52.192;5.398;2023-02-01T02:06:29;1.60;;;0.70;;
55188;SDS011;41069;52.192;5.398;2023-02-01T02:09:01;2.60;;;1.10;;
55188;SDS011;41069;52.192;5.398;2023-02-01T02:11:28;3.17;;;0.93;;
55188;SDS011;41069;52.192;5.398;2023-02-01T02:14:00;5.28;;;1.48;;
55188;SDS011;41069;52.192;5.398;2023-02-01T02:42:25;2.92;;;1.15;;
55188;SDS011;41069;52.192;5.398;2023-02-01T02:45:19;1.75;;;0.95;;
55188;SDS011;41069;52.192;5.398;2023-02-01T02:50:37;4.78;;;1.00;;
55188;SDS011;41069;52.192;5.398;2023-02-01T02:56:10;7.60;;;0.98;;
55188;SDS011;41069;52.192;5.398;2023-02-01T02:58:38;2.65;;;1.25;;
55188;SDS011;41069;52.192;5.398;2023-02-01T03:01:04;2.10;;;0.65;;
55188;SDS011;41069;52.192;5.398;2023-02-01T03:03:30;3.95;;;1.45;;
55188;SDS011;41069;52.192;5.398;2023-02-01T03:05:56;4.18;;;1.10;;
55188;SDS011;41069;52.192;5.398;2023-02-01T03:08:23;1.73;;;1.00;;
55188;SDS011;41069;52.192;5.398;2023-02-01T03:10:53;4.00;;;1.13;;
55188;SDS011;41069;52.192;5.398;2023-02-01T03:18:51;2.53;;;1.13;;
55188;SDS011;41069;52.192;5.398;2023-02-01T03:24:42;2.40;;;0.70;;
55188;SDS011;41069;52.192;5.398;2023-02-01T03:27:20;2.00;;;0.90;;
55188;SDS011;41069;52.192;5.398;2023-02-01T03:32:15;4.13;;;1.20;;
55188;SDS011;41069;52.192;5.398;2023-02-01T03:34:46;4.82;;;1.00;;
55188;SDS011;41069;52.192;5.398;2023-02-01T03:37:13;5.03;;;1.52;;
55188;SDS011;41069;52.192;5.398;2023-02-01T03:42:32;5.55;;;1.50;;
55188;SDS011;41069;52.192;5.398;2023-02-01T03:47:46;2.67;;;1.00;;
55188;SDS011;41069;52.192;5.398;2023-02-01T03:50:18;2.17;;;0.88;;
55188;SDS011;41069;52.192;5.398;2023-02-01T03:53:05;4.20;;;1.42;;
55188;SDS011;41069;52.192;5.398;2023-02-01T03:55:35;1.92;;;0.90;;
55188;SDS011;41069;52.192;5.398;2023-02-01T04:00:54;2.67;;;0.95;;
55188;SDS011;41069;52.192;5.398;2023-02-01T04:03:26;1.67;;;0.95;;
55188;SDS011;41069;52.192;5.398;2023-02-01T04:05:56;2.65;;;1.25;;
55188;SDS011;41069;52.192;5.398;2023-02-01T04:08:22;3.13;;;1.10;;
55188;SDS011;41069;52.192;5.398;2023-02-01T04:10:49;3.47;;;1.55;;
55188;SDS011;41069;52.192;5.398;2023-02-01T04:13:14;2.03;;;1.10;;
55188;SDS011;41069;52.192;5.398;2023-02-01T04:18:10;1.63;;;1.05;;
55188;SDS011;41069;52.192;5.398;2023-02-01T04:23:38;4.03;;;1.17;;
55188;SDS011;41069;52.192;5.398;2023-02-01T04:26:04;5.53;;;1.30;;
55188;SDS011;41069;52.192;5.398;2023-02-01T04:28:30;1.63;;;0.57;;
55188;SDS011;41069;52.192;5.398;2023-02-01T04:30:56;2.20;;;0.73;;
55188;SDS011;41069;52.192;5.398;2023-02-01T04:33:37;4.15;;;1.27;;
55188;SDS011;41069;52.192;5.398;2023-02-01T04:36:18;1.77;;;1.10;;
55188;SDS011;41069;52.192;5.398;2023-02-01T04:41:30;4.65;;;1.25;;
55188;SDS011;41069;52.192;5.398;2023-02-01T04:43:56;2.55;;;1.02;;
55188;SDS011;41069;52.192;5.398;2023-02-01T04:46:22;1.98;;;1.00;;
55188;SDS011;41069;52.192;5.398;2023-02-01T04:48:48;2.28;;;0.85;;
55188;SDS011;41069;52.192;5.398;2023-02-01T04:51:14;3.08;;;0.90;;
55188;SDS011;41069;52.192;5.398;2023-02-01T04:53:39;2.00;;;1.00;;
55188;SDS011;41069;52.192;5.398;2023-02-01T04:56:06;1.58;;;0.70;;
55188;SDS011;41069;52.192;5.398;2023-02-01T04:58:32;2.50;;;1.00;;
55188;SDS011;41069;52.192;5.398;2023-02-01T05:01:09;2.40;;;1.00;;
55188;SDS011;41069;52.192;5.398;2023-02-01T05:03:35;4.45;;;0.82;;
55188;SDS011;41069;52.192;5.398;2023-02-01T05:06:03;3.92;;;1.10;;
55188;SDS011;41069;52.192;5.398;2023-02-01T05:08:29;2.10;;;1.00;;
55188;SDS011;41069;52.192;5.398;2023-02-01T05:10:59;0.95;;;0.90;;
55188;SDS011;41069;52.192;5.398;2023-02-01T05:13:39;3.72;;;0.77;;
55188;SDS011;41069;52.192;5.398;2023-02-01T05:16:05;4.45;;;0.80;;
55188;SDS011;41069;52.192;5.398;2023-02-01T05:18:31;2.58;;;1.08;;
55188;SDS011;41069;52.192;5.398;2023-02-01T05:20:57;1.70;;;0.90;;
55188;SDS011;41069;52.192;5.398;2023-02-01T05:23:23;1.95;;;0.88;;
55188;SDS011;41069;52.192;5.398;2023-02-01T05:25:59;1.70;;;0.95;;
55188;SDS011;41069;52.192;5.398;2023-02-01T05:28:26;1.45;;;0.90;;
55188;SDS011;41069;52.192;5.398;2023-02-01T05:31:10;5.60;;;1.70;;
55188;SDS011;41069;52.192;5.398;2023-02-01T05:33:36;2.05;;;0.88;;
55188;SDS011;41069;52.192;5.398;2023-02-01T05:36:02;2.17;;;0.80;;
55188;SDS011;41069;52.192;5.398;2023-02-01T05:38:30;1.90;;;0.80;;
55188;SDS011;41069;52.192;5.398;2023-02-01T05:43:35;4.13;;;0.98;;
55188;SDS011;41069;52.192;5.398;2023-02-01T05:46:04;4.05;;;1.42;;
55188;SDS011;41069;52.192;5.398;2023-02-01T05:48:33;1.88;;;0.80;;
55188;SDS011;41069;52.192;5.398;2023-02-01T05:50:59;2.15;;;0.95;;
55188;SDS011;41069;52.192;5.398;2023-02-01T05:53:25;3.38;;;1.23;;
55188;SDS011;41069;52.192;5.398;2023-02-01T05:56:08;2.55;;;1.08;;
55188;SDS011;41069;52.192;5.398;2023-02-01T05:58:34;5.80;;;1.10;;
55188;SDS011;41069;52.192;5.398;2023-02-01T06:01:15;2.95;;;1.27;;
55188;SDS011;41069;52.192;5.398;2023-02-01T06:06:41;1.85;;;0.98;;
55188;SDS011;41069;52.192;5.398;2023-02-01T06:09:22;3.75;;;0.82;;
55188;SDS011;41069;52.192;5.398;2023-02-01T06:11:51;5.07;;;1.77;;
55188;SDS011;41069;52.192;5.398;2023-02-01T06:14:17;2.75;;;1.08;;
55188;SDS011;41069;52.192;5.398;2023-02-01T06:16:45;2.10;;;1.00;;
55188;SDS011;41069;52.192;5.398;2023-02-01T06:19:12;10.93;;;1.55;;
55188;SDS011;41069;52.192;5.398;2023-02-01T06:24:49;3.13;;;1.58;;
55188;SDS011;41069;52.192;5.398;2023-02-01T06:27:16;3.38;;;1.00;;
55188;SDS011;41069;52.192;5.398;2023-02-01T06:29:44;5.30;;;1.23;;
55188;SDS011;41069;52.192;5.398;2023-02-01T06:32:18;4.82;;;1.38;;
55188;SDS011;41069;52.192;5.398;2023-02-01T06:34:48;8.77;;;2.85;;
55188;SDS011;41069;52.192;5.398;2023-02-01T06:37:28;12.77;;;3.13;;
55188;SDS011;41069;52.192;5.398;2023-02-01T06:40:04;16.77;;;5.35;;
55188;SDS011;41069;52.192;5.398;2023-02-01T06:45:34;13.43;;;4.15;;
55188;SDS011;41069;52.192;5.398;2023-02-01T06:48:00;21.75;;;4.47;;
55188;SDS011;41069;52.192;5.398;2023-02-01T06:50:30;21.45;;;5.22;;
55188;SDS011;41069;52.192;5.398;2023-02-01T06:52:55;11.40;;;3.05;;
55188;SDS011;41069;52.192;5.398;2023-02-01T06:55:21;16.58;;;4.78;;
55188;SDS011;41069;52.192;5.398;2023-02-01T06:57:47;9.95;;;3.35;;
55188;SDS011;41069;52.192;5.398;2023-02-01T07:00:13;12.07;;;3.97;;
55188;SDS011;41069;52.192;5.398;2023-02-01T07:02:39;13.25;;;3.97;;
55188;SDS011;41069;52.192;5.398;2023-02-01T07:05:19;21.13;;;2.67;;
55188;SDS011;41069;52.192;5.398;2023-02-01T07:07:45;15.10;;;4.10;;
55188;SDS011;41069;52.192;5.398;2023-02-01T07:10:11;11.75;;;4.03;;
55188;SDS011;41069;52.192;5.398;2023-02-01T07:12:37;9.52;;;2.40;;
55188;SDS011;41069;52.192;5.398;2023-02-01T07:15:03;12.13;;;3.10;;
55188;SDS011;41069;52.192;5.398;2023-02-01T07:17:32;10.73;;;3.50;;
55188;SDS011;41069;52.192;5.398;2023-02-01T07:19:58;12.95;;;3.20;;
55188;SDS011;41069;52.192;5.398;2023-02-01T07:22:24;10.32;;;2.83;;
55188;SDS011;41069;52.192;5.398;2023-02-01T07:24:50;12.43;;;2.97;;
55188;SDS011;41069;52.192;5.398;2023-02-01T07:27:16;6.57;;;2.33;;
55188;SDS011;41069;52.192;5.398;2023-02-01T07:29:42;5.53;;;1.92;;
55188;SDS011;41069;52.192;5.398;2023-02-01T07:32:11;6.63;;;2.55;;
55188;SDS011;41069;52.192;5.398;2023-02-01T07:34:36;6.30;;;1.98;;
55188;SDS011;41069;52.192;5.398;2023-02-01T07:37:11;7.53;;;1.42;;
55188;SDS011;41069;52.192;5.398;2023-02-01T07:39:37;8.18;;;1.67;;
55188;SDS011;41069;52.192;5.398;2023-02-01T07:44:35;4.72;;;1.80;;
55188;SDS011;41069;52.192;5.398;2023-02-01T07:47:10;8.50;;;1.73;;
55188;SDS011;41069;52.192;5.398;2023-02-01T07:52:22;6.88;;;1.50;;
55188;SDS011;41069;52.192;5.398;2023-02-01T07:54:48;6.43;;;1.52;;
55188;SDS011;41069;52.192;5.398;2023-02-01T07:57:13;4.20;;;1.70;;
55188;SDS011;41069;52.192;5.398;2023-02-01T07:59:40;5.75;;;2.13;;
55188;SDS011;41069;52.192;5.398;2023-02-01T08:02:21;3.67;;;1.58;;
55188;SDS011;41069;52.192;5.398;2023-02-01T08:04:47;4.72;;;1.38;;
55188;SDS011;41069;52.192;5.398;2023-02-01T08:07:25;4.82;;;1.42;;
55188;SDS011;41069;52.192;5.398;2023-02-01T08:09:51;3.45;;;1.00;;
55188;SDS011;41069;52.192;5.398;2023-02-01T08:12:17;2.35;;;1.23;;
55188;SDS011;41069;52.192;5.398;2023-02-01T08:14:43;5.72;;;1.83;;
55188;SDS011;41069;52.192;5.398;2023-02-01T08:17:09;2.33;;;1.08;;
55188;SDS011;41069;52.192;5.398;2023-02-01T08:19:38;2.40;;;0.90;;
55188;SDS011;41069;52.192;5.398;2023-02-01T08:22:04;8.65;;;1.75;;
55188;SDS011;41069;52.192;5.398;2023-02-01T08:24:33;4.35;;;1.23;;
55188;SDS011;41069;52.192;5.398;2023-02-01T08:27:01;4.35;;;1.23;;
55188;SDS011;41069;52.192;5.398;2023-02-01T08:29:44;3.58;;;1.20;;
55188;SDS011;41069;52.192;5.398;2023-02-01T08:32:16;2.40;;;1.10;;
55188;SDS011;41069;52.192;5.398;2023-02-01T08:34:43;3.17;;;1.63;;
55188;SDS011;41069;52.192;5.398;2023-02-01T08:37:09;1.15;;;0.70;;
55188;SDS011;41069;52.192;5.398;2023-02-01T08:39:38;6.47;;;1.30;;
55188;SDS011;41069;52.192;5.398;2023-02-01T08:42:04;5.13;;;0.85;;
55188;SDS011;41069;52.192;5.398;2023-02-01T08:44:30;2.17;;;0.95;;
55188;SDS011;41069;52.192;5.398;2023-02-01T08:46:56;10.32;;;1.40;;
55188;SDS011;41069;52.192;5.398;2023-02-01T08:49:22;3.45;;;1.33;;
55188;SDS011;41069;52.192;5.398;2023-02-01T08:52:04;5.10;;;1.50;;
55188;SDS011;41069;52.192;5.398;2023-02-01T08:54:32;1.98;;;0.98;;
55188;SDS011;41069;52.192;5.398;2023-02-01T08:57:00;11.70;;;1.15;;
55188;SDS011;41069;52.192;5.398;2023-02-01T08:59:26;3.78;;;0.90;;
55188;SDS011;41069;52.192;5.398;2023-02-01T09:01:52;1.55;;;1.17;;
55188;SDS011;41069;52.192;5.398;2023-02-01T09:04:18;1.60;;;0.85;;
55188;SDS011;41069;52.192;5.398;2023-02-01T09:06:44;3.97;;;1.45;;
55188;SDS011;41069;52.192;5.398;2023-02-01T09:09:09;2.00;;;0.80;;
55188;SDS011;41069;52.192;5.398;2023-02-01T09:11:38;6.43;;;1.25;;
55188;SDS011;41069;52.192;5.398;2023-02-01T09:14:04;2.95;;;1.38;;
55188;SDS011;41069;52.192;5.398;2023-02-01T09:16:47;11.57;;;1.83;;
55188;SDS011;41069;52.192;5.398;2023-02-01T09:21:46;3.30;;;0.93;;
55188;SDS011;41069;52.192;5.398;2023-02-01T09:24:12;4.63;;;1.00;;
55188;SDS011;41069;52.192;5.398;2023-02-01T09:26:38;1.33;;;0.82;;
55188;SDS011;41069;52.192;5.398;2023-02-01T09:29:10;2.05;;;0.70;;
55188;SDS011;41069;52.192;5.398;2023-02-01T09:31:40;2.67;;;1.10;;
55188;SDS011;41069;52.192;5.398;2023-02-01T09:34:06;6.82;;;1.35;;
55188;SDS011;41069;52.192;5.398;2023-02-01T09:36:33;5.07;;;1.50;;
55188;SDS011;41069;52.192;5.398;2023-02-01T09:47:38;2.90;;;0.90;;
55188;SDS011;41069;52.192;5.398;2023-02-01T09:50:13;1.95;;;0.63;;
55188;SDS011;41069;52.192;5.398;2023-02-01T09:52:44;3.38;;;0.82;;
55188;SDS011;41069;52.192;5.398;2023-02-01T09:55:27;3.58;;;0.82;;
55188;SDS011;41069;52.192;5.398;2023-02-01T09:57:57;5.93;;;1.10;;
55188;SDS011;41069;52.192;5.398;2023-02-01T10:00:38;1.00;;;0.52;;
55188;SDS011;41069;52.192;5.398;2023-02-01T10:03:15;7.15;;;1.10;;
55188;SDS011;41069;52.192;5.398;2023-02-01T10:08:44;1.02;;;0.50;;
55188;SDS011;41069;52.192;5.398;2023-02-01T10:11:32;3.15;;;1.00;;
55188;SDS011;41069;52.192;5.398;2023-02-01T10:14:13;3.30;;;0.73;;
55188;SDS011;41069;52.192;5.398;2023-02-01T10:20:03;3.80;;;0.98;;
55188;SDS011;41069;52.192;5.398;2023-02-01T10:22:49;2.88;;;0.77;;
55188;SDS011;41069;52.192;5.398;2023-02-01T10:25:19;6.13;;;1.30;;
55188;SDS011;41069;52.192;5.398;2023-02-01T10:28:13;3.78;;;1.20;;
55188;SDS011;41069;52.192;5.398;2023-02-01T10:31:00;5.88;;;1.67;;
55188;SDS011;41069;52.192;5.398;2023-02-01T10:33:33;6.50;;;1.60;;
55188;SDS011;41069;52.192;5.398;2023-02-01T10:36:24;3.67;;;1.67;;
55188;SDS011;41069;52.192;5.398;2023-02-01T10:38:59;2.92;;;0.93;;
55188;SDS011;41069;52.192;5.398;2023-02-01T10:41:34;2.22;;;0.98;;
55188;SDS011;41069;52.192;5.398;2023-02-01T10:44:03;1.50;;;0.50;;
55188;SDS011;41069;52.192;5.398;2023-02-01T10:46:33;2.60;;;1.10;;
55188;SDS011;41069;52.192;5.398;2023-02-01T10:49:00;1.83;;;0.85;;
55188;SDS011;41069;52.192;5.398;2023-02-01T10:51:46;2.47;;;1.10;;
55188;SDS011;41069;52.192;5.398;2023-02-01T10:54:23;4.70;;;1.00;;
55188;SDS011;41069;52.192;5.398;2023-02-01T10:57:02;1.80;;;0.90;;
55188;SDS011;41069;52.192;5.398;2023-02-01T10:59:29;4.38;;;1.33;;
55188;SDS011;41069;52.192;5.398;2023-02-01T11:02:00;2.67;;;0.77;;
55188;SDS011;41069;52.192;5.398;2023-02-01T11:04:28;2.53;;;1.13;;
55188;SDS011;41069;52.192;5.398;2023-02-01T11:07:13;1.75;;;0.70;;
55188;SDS011;41069;52.192;5.398;2023-02-01T11:09:48;3.60;;;1.20;;
55188;SDS011;41069;52.192;5.398;2023-02-01T11:15:23;0.80;;;0.60;;
55188;SDS011;41069;52.192;5.398;2023-02-01T11:17:50;3.28;;;1.10;;
55188;SDS011;41069;52.192;5.398;2023-02-01T11:20:19;1.88;;;0.70;;
55188;SDS011;41069;52.192;5.398;2023-02-01T11:22:57;6.90;;;1.08;;
55188;SDS011;41069;52.192;5.398;2023-02-01T11:25:27;2.97;;;0.82;;
55188;SDS011;41069;52.192;5.398;2023-02-01T11:27:54;2.78;;;1.13;;
55188;SDS011;41069;52.192;5.398;2023-02-01T11:30:45;1.27;;;0.63;;
55188;SDS011;41069;52.192;5.398;2023-02-01T11:33:14;2.83;;;0.70;;
55188;SDS011;41069;52.192;5.398;2023-02-01T11:35:43;1.02;;;0.73;;
55188;SDS011;41069;52.192;5.398;2023-02-01T11:38:11;2.10;;;0.70;;
55188;SDS011;41069;52.192;5.398;2023-02-01T11:40:45;1.70;;;0.63;;
55188;SDS011;41069;52.192;5.398;2023-02-01T11:46:16;1.90;;;0.88;;
55188;SDS011;41069;52.192;5.398;2023-02-01T11:48:43;1.00;;;0.68;;
55188;SDS011;41069;52.192;5.398;2023-02-01T12:06:39;0.98;;;0.35;;
55188;SDS011;41069;52.192;5.398;2023-02-01T12:24:01;1.52;;;0.70;;
55188;SDS011;41069;52.192;5.398;2023-02-01T12:32:29;0.68;;;0.40;;
55188;SDS011;41069;52.192;5.398;2023-02-01T12:43:50;0.65;;;0.50;;
55188;SDS011;41069;52.192;5.398;2023-02-01T12:46:23;3.72;;;0.93;;
55188;SDS011;41069;52.192;5.398;2023-02-01T12:51:50;0.38;;;0.38;;
55188;SDS011;41069;52.192;5.398;2023-02-01T12:57:17;1.05;;;0.60;;
55188;SDS011;41069;52.192;5.398;2023-02-01T12:59:56;2.10;;;0.60;;
55188;SDS011;41069;52.192;5.398;2023-02-01T13:02:35;1.02;;;0.40;;
55188;SDS011;41069;52.192;5.398;2023-02-01T13:05:20;2.03;;;0.77;;
55188;SDS011;41069;52.192;5.398;2023-02-01T13:19:57;2.35;;;0.68;;
55188;SDS011;41069;52.192;5.398;2023-02-01T13:22:30;1.47;;;0.80;;
55188;SDS011;41069;52.192;5.398;2023-02-01T13:27:28;2.75;;;1.08;;
55188;SDS011;41069;52.192;5.398;2023-02-01T13:47:51;1.38;;;0.55;;
55188;SDS011;41069;52.192;5.398;2023-02-01T13:50:00;3.30;;;0.70;;
55188;SDS011;41069;52.192;5.398;2023-02-01T13:52:42;1.50;;;0.70;;
55188;SDS011;41069;52.192;5.398;2023-02-01T13:55:14;0.90;;;0.55;;
55188;SDS011;41069;52.192;5.398;2023-02-01T13:57:59;1.95;;;0.68;;
55188;SDS011;41069;52.192;5.398;2023-02-01T14:00:39;1.50;;;0.50;;
55188;SDS011;41069;52.192;5.398;2023-02-01T14:16:15;3.08;;;1.00;;
55188;SDS011;41069;52.192;5.398;2023-02-01T14:23:44;3.80;;;0.75;;
55188;SDS011;41069;52.192;5.398;2023-02-01T14:26:13;3.47;;;0.88;;
55188;SDS011;41069;52.192;5.398;2023-02-01T14:31:32;0.95;;;0.50;;
55188;SDS011;41069;52.192;5.398;2023-02-01T14:34:04;3.17;;;0.95;;
55188;SDS011;41069;52.192;5.398;2023-02-01T14:36:51;1.65;;;1.02;;
55188;SDS011;41069;52.192;5.398;2023-02-01T14:50:29;1.80;;;0.40;;
55188;SDS011;41069;52.192;5.398;2023-02-01T14:53:10;1.95;;;0.80;;
55188;SDS011;41069;52.192;5.398;2023-02-01T15:01:30;3.50;;;0.90;;
55188;SDS011;41069;52.192;5.398;2023-02-01T15:04:12;0.95;;;0.50;;
55188;SDS011;41069;52.192;5.398;2023-02-01T15:06:54;2.88;;;0.45;;
55188;SDS011;41069;52.192;5.398;2023-02-01T15:09:24;1.85;;;0.60;;
55188;SDS011;41069;52.192;5.398;2023-02-01T15:11:59;1.45;;;0.52;;
55188;SDS011;41069;52.192;5.398;2023-02-01T15:14:31;2.67;;;0.57;;
55188;SDS011;41069;52.192;5.398;2023-02-01T15:17:03;1.98;;;0.52;;
55188;SDS011;41069;52.192;5.398;2023-02-01T15:22:30;1.45;;;0.65;;
55188;SDS011;41069;52.192;5.398;2023-02-01T15:24:57;4.07;;;0.55;;
55188;SDS011;41069;52.192;5.398;2023-02-01T15:27:24;1.70;;;0.63;;
55188;SDS011;41069;52.192;5.398;2023-02-01T15:30:04;2.08;;;0.63;;
55188;SDS011;41069;52.192;5.398;2023-02-01T15:32:37;3.30;;;0.77;;
55188;SDS011;41069;52.192;5.398;2023-02-01T15:46:33;1.23;;;0.77;;
55188;SDS011;41069;52.192;5.398;2023-02-01T15:49:03;1.00;;;0.45;;
55188;SDS011;41069;52.192;5.398;2023-02-01T15:51:31;2.50;;;0.60;;
55188;SDS011;41069;52.192;5.398;2023-02-01T15:53:58;1.58;;;0.68;;
55188;SDS011;41069;52.192;5.398;2023-02-01T15:56:28;1.67;;;0.50;;
55188;SDS011;41069;52.192;5.398;2023-02-01T15:59:02;9.68;;;1.45;;
55188;SDS011;41069;52.192;5.398;2023-02-01T16:01:36;1.95;;;0.40;;
55188;SDS011;41069;52.192;5.398;2023-02-01T16:04:16;3.20;;;0.60;;
55188;SDS011;41069;52.192;5.398;2023-02-01T16:06:49;4.05;;;0.73;;
55188;SDS011;41069;52.192;5.398;2023-02-01T16:09:16;2.80;;;1.60;;
55188;SDS011;41069;52.192;5.398;2023-02-01T16:14:15;1.65;;;0.80;;
55188;SDS011;41069;52.192;5.398;2023-02-01T16:16:41;0.55;;;0.43;;
55188;SDS011;41069;52.192;5.398;2023-02-01T16:19:24;4.00;;;0.63;;
55188;SDS011;41069;52.192;5.398;2023-02-01T16:21:50;1.97;;;0.50;;
55188;SDS011;41069;52.192;5.398;2023-02-01T16:24:15;0.70;;;0.70;;
55188;SDS011;41069;52.192;5.398;2023-02-01T16:29:21;1.50;;;0.52;;
55188;SDS011;41069;52.192;5.398;2023-02-01T16:31:47;2.42;;;0.88;;
55188;SDS011;41069;52.192;5.398;2023-02-01T16:34:14;1.40;;;0.70;;
55188;SDS011;41069;52.192;5.398;2023-02-01T16:36:41;1.55;;;0.98;;
55188;SDS011;41069;52.192;5.398;2023-02-01T16:39:17;0.57;;;0.30;;
55188;SDS011;41069;52.192;5.398;2023-02-01T16:41:44;0.52;;;0.52;;
55188;SDS011;41069;52.192;5.398;2023-02-01T16:51:19;0.82;;;0.60;;
55188;SDS011;41069;52.192;5.398;2023-02-01T16:53:45;1.35;;;0.68;;
55188;SDS011;41069;52.192;5.398;2023-02-01T16:59:06;2.90;;;1.35;;
55188;SDS011;41069;52.192;5.398;2023-02-01T17:01:33;6.73;;;0.83;;
55188;SDS011;41069;52.192;5.398;2023-02-01T17:03:58;1.45;;;0.80;;
55188;SDS011;41069;52.192;5.398;2023-02-01T17:06:24;1.48;;;0.70;;
55188;SDS011;41069;52.192;5.398;2023-02-01T17:08:52;5.63;;;0.50;;
55188;SDS011;41069;52.192;5.398;2023-02-01T17:11:20;2.88;;;0.75;;
55188;SDS011;41069;52.192;5.398;2023-02-01T17:14:00;2.30;;;0.50;;
